Neosho Falls, Kansas
Current Conditions -  °F | °C
As of 11:52 PM on Saturday 25 Oct 2014 (Local Time) from KCNU Reporting Station
Clear Clear  
Wind Chill: 64°   Ceiling: Unl
Heat Index: 64°   Visibility: 10mi
Dew Point: 62°   Wind: 7mph
Humidity: 93%   Direction: 150°SSE
Pressure: 29.97"   Gusts: NA
Location:  38.01°N, 95.56°W
Report Text: KCNU 260452Z AUTO 15006KT 10SM CLR 18/17 A2997 RMK AO2 SLP141 T01780167
Loading
Personal Weather Stations






























Interactive Weather Map New forecast layout! Learn more

10-Day Weather Forecast

Advertisements
Track Severe Weather on mobile